createdAt,value
2019-03-29T00:01:39.987Z,27.27
2019-03-29T00:04:07.725Z,28.20
2019-03-29T00:06:35.474Z,26.93
2019-03-29T00:09:05.225Z,27.00
2019-03-29T00:11:33.000Z,27.53
2019-03-29T00:14:00.724Z,27.30
2019-03-29T00:16:28.480Z,28.90
2019-03-29T00:18:56.216Z,29.37
2019-03-29T00:21:23.996Z,27.57
2019-03-29T00:24:05.803Z,26.97
2019-03-29T00:26:21.508Z,26.90
2019-03-29T00:28:49.224Z,23.23
2019-03-29T00:31:16.972Z,21.07
2019-03-29T00:33:44.729Z,23.60
2019-03-29T00:36:12.484Z,24.60
2019-03-29T00:38:40.248Z,21.97
2019-03-29T00:41:08.005Z,22.13
2019-03-29T00:43:35.734Z,20.43
2019-03-29T00:46:03.479Z,22.60
2019-03-29T00:48:31.324Z,22.07
2019-03-29T00:50:59.314Z,22.67
2019-03-29T00:53:27.208Z,17.30
2019-03-29T00:55:54.956Z,21.03
2019-03-29T00:58:23.003Z,26.40
2019-03-29T01:00:51.016Z,22.53
2019-03-29T01:03:18.865Z,27.47
2019-03-29T01:05:47.017Z,23.60
2019-03-29T01:08:15.340Z,23.87
2019-03-29T01:10:43.124Z,21.40
2019-03-29T01:13:10.888Z,31.20
2019-03-29T01:15:38.726Z,30.77
2019-03-29T01:18:06.481Z,29.73
2019-03-29T01:20:34.209Z,26.60
2019-03-29T01:23:01.977Z,22.17
2019-03-29T01:25:29.732Z,25.80
2019-03-29T01:27:58.024Z,23.43
2019-03-29T01:30:25.889Z,25.80
2019-03-29T01:32:53.640Z,21.30
2019-03-29T01:35:21.388Z,21.93
2019-03-29T01:37:49.168Z,24.53
2019-03-29T01:40:17.025Z,28.17
2019-03-29T01:42:45.077Z,26.37
2019-03-29T01:45:13.348Z,25.10
2019-03-29T01:47:41.107Z,23.53
2019-03-29T01:50:09.057Z,25.87
2019-03-29T01:52:36.800Z,23.10
2019-03-29T01:55:05.948Z,23.50
2019-03-29T01:57:33.688Z,25.83
2019-03-29T02:00:01.434Z,24.77
2019-03-29T02:02:29.204Z,25.63
2019-03-29T02:04:57.038Z,30.53
2019-03-29T02:07:24.806Z,31.07
2019-03-29T02:09:52.636Z,33.43
2019-03-29T02:12:20.361Z,32.93
2019-03-29T02:14:48.124Z,24.53
2019-03-29T02:17:15.882Z,26.37
2019-03-29T02:19:43.612Z,28.97
2019-03-29T02:22:11.354Z,30.10
2019-03-29T02:24:39.086Z,29.80
2019-03-29T02:27:06.908Z,30.07
2019-03-29T02:29:34.660Z,29.83
2019-03-29T02:32:02.409Z,33.47
2019-03-29T02:34:30.146Z,28.63
2019-03-29T02:36:57.893Z,35.23
2019-03-29T02:39:26.749Z,38.17
2019-03-29T02:41:54.898Z,32.13
2019-03-29T02:44:22.696Z,28.00
2019-03-29T02:46:50.453Z,34.50
2019-03-29T02:49:18.189Z,33.20
2019-03-29T02:51:45.953Z,35.93
2019-03-29T02:54:13.701Z,34.47
2019-03-29T02:56:41.465Z,36.67
2019-03-29T02:59:09.257Z,34.30
2019-03-29T03:01:37.008Z,33.27
2019-03-29T03:04:04.745Z,40.60
2019-03-29T03:06:32.494Z,36.20
2019-03-29T03:09:13.387Z,28.07
2019-03-29T03:11:29.892Z,31.50
2019-03-29T03:13:57.665Z,32.77
2019-03-29T03:16:25.417Z,36.20
2019-03-29T03:18:53.152Z,33.20
2019-03-29T03:21:20.920Z,29.27
2019-03-29T03:23:48.650Z,34.30
2019-03-29T03:26:16.408Z,35.00
2019-03-29T03:28:44.160Z,32.57
2019-03-29T03:31:11.905Z,34.80
2019-03-29T03:33:39.853Z,33.83
2019-03-29T03:36:07.600Z,35.13
2019-03-29T03:38:35.344Z,34.03
2019-03-29T03:41:03.154Z,35.83
2019-03-29T03:43:30.917Z,37.00
2019-03-29T03:45:58.661Z,37.30
2019-03-29T03:48:26.397Z,32.00
2019-03-29T03:50:54.428Z,32.37
2019-03-29T03:53:22.174Z,33.53
2019-03-29T03:55:51.922Z,36.50
2019-03-29T03:58:21.066Z,30.93
2019-03-29T04:00:52.426Z,31.23
2019-03-29T04:03:21.260Z,36.90
2019-03-29T04:05:49.187Z,32.20
2019-03-29T04:08:17.417Z,31.33
2019-03-29T04:10:45.151Z,29.63
2019-03-29T04:13:13.222Z,35.07
2019-03-29T04:15:41.071Z,34.13
2019-03-29T04:18:09.312Z,40.20
2019-03-29T04:20:37.065Z,36.67
2019-03-29T04:23:04.809Z,35.83
2019-03-29T04:25:32.542Z,34.70
2019-03-29T04:28:00.293Z,35.63
2019-03-29T04:30:28.059Z,36.40
2019-03-29T04:32:56.022Z,34.90
2019-03-29T04:35:23.790Z,38.90
2019-03-29T04:37:51.567Z,35.97
2019-03-29T04:40:19.313Z,35.97
2019-03-29T04:42:47.108Z,34.30
2019-03-29T04:45:14.865Z,33.33
2019-03-29T04:47:42.834Z,32.73
2019-03-29T04:50:11.091Z,33.03
2019-03-29T04:52:38.889Z,34.27
2019-03-29T04:55:06.778Z,34.17
2019-03-29T04:57:34.520Z,35.07
2019-03-29T05:00:02.613Z,33.30
2019-03-29T05:02:30.371Z,33.47
2019-03-29T05:04:58.240Z,33.90
2019-03-29T05:07:25.998Z,35.07
2019-03-29T05:09:53.740Z,32.47
2019-03-29T05:12:21.495Z,35.40
2019-03-29T05:14:49.235Z,30.67
2019-03-29T05:17:17.064Z,32.10
2019-03-29T05:19:44.818Z,30.20
2019-03-29T05:22:12.591Z,31.10
2019-03-29T05:24:40.432Z,31.13
2019-03-29T05:27:08.201Z,29.93
2019-03-29T05:29:35.952Z,30.97
2019-03-29T05:32:03.900Z,30.03
2019-03-29T05:34:31.652Z,31.77
2019-03-29T05:36:59.564Z,30.83
2019-03-29T05:39:27.397Z,27.93
2019-03-29T05:41:55.140Z,30.03
2019-03-29T05:44:22.894Z,28.47
2019-03-29T05:46:50.648Z,28.60
2019-03-29T05:49:18.437Z,31.13
2019-03-29T05:51:46.495Z,31.10
2019-03-29T05:54:14.235Z,29.83
2019-03-29T05:56:42.023Z,27.30
2019-03-29T05:59:09.888Z,28.93
2019-03-29T06:01:37.652Z,28.80
2019-03-29T06:04:05.479Z,33.90
2019-03-29T06:06:33.369Z,30.10
2019-03-29T06:09:01.109Z,27.97
2019-03-29T06:11:28.861Z,27.17
2019-03-29T06:13:56.739Z,27.93
2019-03-29T06:16:38.122Z,27.97
2019-03-29T06:18:54.180Z,24.13
2019-03-29T06:21:21.972Z,24.53
2019-03-29T06:23:49.702Z,25.47
2019-03-29T06:26:17.587Z,25.43
2019-03-29T06:28:45.349Z,24.20
2019-03-29T06:31:13.128Z,25.57
2019-03-29T06:33:44.165Z,25.10
2019-03-29T06:36:12.937Z,25.50
2019-03-29T06:38:42.672Z,25.70
2019-03-29T06:41:10.409Z,23.73
2019-03-29T06:43:38.248Z,23.73
2019-03-29T06:46:06.024Z,23.83
2019-03-29T06:48:33.808Z,24.33
2019-03-29T06:51:01.582Z,26.70
2019-03-29T06:53:29.318Z,26.13
2019-03-29T06:55:59.345Z,22.43
2019-03-29T06:58:26.724Z,20.97
2019-03-29T07:00:54.573Z,23.17
2019-03-29T07:03:22.325Z,22.50
2019-03-29T07:05:50.138Z,21.80
2019-03-29T07:08:17.877Z,21.77
2019-03-29T07:10:45.612Z,22.10
2019-03-29T07:13:13.405Z,21.97
2019-03-29T07:15:41.144Z,21.60
2019-03-29T07:18:08.889Z,22.87
2019-03-29T07:20:36.653Z,21.10
2019-03-29T07:23:04.413Z,22.83
2019-03-29T07:25:32.160Z,20.83
2019-03-29T07:27:59.907Z,21.67
2019-03-29T07:30:27.652Z,21.83
2019-03-29T07:32:55.392Z,21.60
2019-03-29T07:35:23.161Z,20.50
2019-03-29T07:37:50.920Z,19.20
2019-03-29T07:40:18.672Z,20.67
2019-03-29T07:42:46.427Z,19.30
2019-03-29T07:45:14.390Z,16.50
2019-03-29T07:47:42.126Z,20.27
2019-03-29T07:50:09.921Z,18.60
2019-03-29T07:52:37.758Z,18.80
2019-03-29T07:55:05.732Z,21.30
2019-03-29T07:57:33.484Z,18.20
2019-03-29T08:00:01.256Z,18.60
2019-03-29T08:02:29.243Z,17.03
2019-03-29T08:04:57.086Z,17.00
2019-03-29T08:07:27.610Z,19.03
2019-03-29T08:09:54.541Z,18.60
2019-03-29T08:12:22.495Z,17.97
2019-03-29T08:14:50.452Z,17.97
2019-03-29T08:17:18.204Z,17.90
2019-03-29T08:19:45.947Z,16.37
2019-03-29T08:22:13.676Z,16.60
2019-03-29T08:24:41.570Z,16.30
2019-03-29T08:27:09.324Z,13.73
2019-03-29T08:29:37.064Z,16.93
2019-03-29T08:32:05.051Z,14.73
2019-03-29T08:34:35.792Z,17.17
2019-03-29T08:37:02.582Z,13.97
2019-03-29T08:39:30.453Z,23.20
2019-03-29T08:42:00.376Z,16.20
2019-03-29T08:44:27.960Z,12.30
2019-03-29T08:46:55.712Z,10.60
2019-03-29T08:49:23.454Z,13.63
2019-03-29T08:51:51.201Z,14.07
2019-03-29T08:54:19.015Z,11.77
2019-03-29T08:56:46.903Z,12.50
2019-03-29T08:59:17.403Z,9.50
2019-03-29T09:01:44.421Z,10.50
2019-03-29T09:04:12.168Z,9.27
2019-03-29T09:06:52.684Z,7.67
2019-03-29T09:09:11.963Z,7.40
2019-03-29T09:11:39.499Z,8.00
2019-03-29T09:14:07.232Z,7.97
2019-03-29T09:16:35.067Z,8.07
2019-03-29T09:19:02.977Z,7.13
2019-03-29T09:21:30.701Z,7.53
2019-03-29T09:23:58.477Z,7.90
2019-03-29T09:26:26.236Z,9.83
2019-03-29T09:28:54.004Z,9.00
2019-03-29T09:31:21.901Z,6.80
2019-03-29T09:33:49.677Z,7.30
2019-03-29T09:36:17.412Z,7.60
2019-03-29T09:38:45.169Z,6.53
2019-03-29T09:41:12.913Z,5.17
2019-03-29T09:43:40.689Z,5.53
2019-03-29T09:46:08.512Z,6.27
2019-03-29T09:48:36.275Z,7.37
2019-03-29T09:51:04.026Z,7.63
2019-03-29T09:53:31.807Z,6.63
2019-03-29T09:55:59.702Z,6.33
2019-03-29T09:58:27.565Z,6.27
2019-03-29T10:00:55.515Z,7.40
2019-03-29T10:03:23.268Z,7.40
2019-03-29T10:05:51.011Z,8.70
2019-03-29T10:08:18.752Z,7.50
2019-03-29T10:10:46.497Z,7.77
2019-03-29T10:13:14.234Z,7.53
2019-03-29T10:15:41.979Z,8.70
2019-03-29T10:18:09.728Z,7.87
2019-03-29T10:20:37.574Z,7.90
2019-03-29T10:23:05.361Z,7.23
2019-03-29T10:25:33.115Z,7.20
2019-03-29T10:28:00.871Z,10.10
2019-03-29T10:30:37.251Z,7.83
2019-03-29T10:33:05.141Z,7.20
2019-03-29T10:35:32.897Z,8.10
2019-03-29T10:38:00.749Z,8.13
2019-03-29T10:40:28.477Z,8.20
2019-03-29T10:42:58.119Z,7.40
2019-03-29T10:45:25.906Z,7.73
2019-03-29T10:47:53.648Z,6.70
2019-03-29T10:50:21.428Z,7.03
2019-03-29T10:52:49.185Z,7.47
2019-03-29T10:55:17.017Z,7.00
2019-03-29T10:57:44.796Z,7.60
2019-03-29T11:00:17.410Z,7.73
2019-03-29T11:02:45.231Z,7.20
2019-03-29T11:05:13.195Z,8.00
2019-03-29T11:07:40.942Z,7.30
2019-03-29T11:10:12.904Z,7.20
2019-03-29T11:12:40.873Z,6.90
2019-03-29T11:15:08.734Z,7.10
2019-03-29T11:17:36.684Z,7.30
2019-03-29T11:20:05.152Z,8.17
2019-03-29T11:22:32.923Z,7.33
2019-03-29T11:25:00.675Z,7.63
2019-03-29T11:27:28.545Z,7.93
2019-03-29T11:29:56.282Z,6.47
2019-03-29T11:32:24.048Z,8.47
2019-03-29T11:34:51.798Z,9.63
2019-03-29T11:37:19.550Z,7.23
2019-03-29T11:39:47.284Z,7.40
2019-03-29T11:42:15.024Z,7.10
2019-03-29T11:44:42.768Z,7.87
2019-03-29T11:47:10.625Z,7.20
2019-03-29T11:49:38.397Z,7.37
2019-03-29T11:52:06.165Z,7.90
2019-03-29T11:54:34.041Z,7.20
2019-03-29T11:57:01.777Z,7.37
2019-03-29T11:59:29.541Z,8.10
2019-03-29T12:01:57.297Z,8.40
2019-03-29T12:04:25.055Z,8.43
2019-03-29T12:06:52.820Z,8.27
2019-03-29T12:09:20.586Z,7.70
2019-03-29T12:11:48.354Z,6.93
2019-03-29T12:14:16.213Z,6.67
2019-03-29T12:16:43.967Z,7.93
2019-03-29T12:19:11.733Z,7.40
2019-03-29T12:21:39.621Z,6.47
2019-03-29T12:24:07.404Z,6.23
2019-03-29T12:26:35.158Z,7.07
2019-03-29T12:29:04.961Z,7.60
2019-03-29T12:31:32.792Z,8.13
2019-03-29T12:34:00.649Z,7.47
2019-03-29T12:36:28.416Z,7.67
2019-03-29T12:38:56.185Z,7.10
2019-03-29T12:41:24.037Z,6.77
2019-03-29T12:43:55.707Z,7.60
2019-03-29T12:46:21.681Z,7.43
2019-03-29T12:48:50.402Z,8.33
2019-03-29T12:51:18.530Z,7.10
2019-03-29T12:53:46.308Z,7.83
2019-03-29T12:56:14.079Z,7.23
2019-03-29T12:58:41.961Z,7.57
2019-03-29T13:01:09.706Z,7.90
2019-03-29T13:03:37.601Z,7.20
2019-03-29T13:06:05.501Z,7.67
2019-03-29T13:08:33.304Z,6.50
2019-03-29T13:11:01.121Z,7.23
2019-03-29T13:13:29.003Z,6.53
2019-03-29T13:15:56.755Z,7.63
2019-03-29T13:18:24.542Z,6.60
2019-03-29T13:20:52.301Z,8.03
2019-03-29T13:23:20.059Z,7.20
2019-03-29T13:25:47.909Z,6.83
2019-03-29T13:28:15.756Z,7.47
2019-03-29T13:30:43.512Z,7.40
2019-03-29T13:33:11.249Z,7.70
2019-03-29T13:35:39.100Z,7.60
2019-03-29T13:38:06.944Z,8.07
2019-03-29T13:40:34.724Z,7.00
2019-03-29T13:43:02.464Z,6.90
2019-03-29T13:45:30.301Z,7.47
2019-03-29T13:47:58.373Z,7.40
2019-03-29T13:50:26.132Z,7.53
2019-03-29T13:52:53.868Z,7.57
2019-03-29T13:55:21.617Z,7.63
2019-03-29T13:57:49.390Z,6.93
2019-03-29T14:00:17.589Z,7.20
2019-03-29T14:02:45.385Z,8.50
2019-03-29T14:05:13.347Z,6.97
2019-03-29T14:07:41.096Z,8.67
2019-03-29T14:10:09.732Z,9.30
2019-03-29T14:12:38.038Z,7.93
2019-03-29T14:15:07.201Z,8.87
2019-03-29T14:17:35.016Z,9.33
2019-03-29T14:20:03.138Z,9.17
2019-03-29T14:22:30.906Z,11.13
2019-03-29T14:24:58.664Z,7.70
2019-03-29T14:27:26.476Z,8.50
2019-03-29T14:30:04.407Z,7.90
2019-03-29T14:32:24.002Z,8.27
2019-03-29T14:34:51.768Z,8.53
2019-03-29T14:37:19.537Z,7.10
2019-03-29T14:39:47.293Z,6.60
2019-03-29T14:42:15.178Z,7.80
2019-03-29T14:44:52.157Z,7.40
2019-03-29T14:47:12.768Z,7.90
2019-03-29T14:49:40.541Z,8.30
2019-03-29T14:52:08.269Z,6.97
2019-03-29T14:54:36.302Z,7.80
2019-03-29T14:57:05.619Z,8.73
2019-03-29T14:59:33.701Z,7.30
2019-03-29T15:02:01.565Z,7.77
2019-03-29T15:04:29.342Z,6.50
2019-03-29T15:06:57.394Z,6.77
2019-03-29T15:09:25.146Z,6.67
2019-03-29T15:11:52.913Z,7.20
2019-03-29T15:14:23.086Z,7.03
2019-03-29T15:16:50.488Z,6.90
2019-03-29T15:19:18.236Z,7.90
2019-03-29T15:21:46.000Z,7.73
2019-03-29T15:24:13.824Z,6.17
2019-03-29T15:26:41.625Z,6.87
2019-03-29T15:29:09.436Z,6.70
2019-03-29T15:31:37.258Z,7.63
2019-03-29T15:34:05.056Z,7.77
2019-03-29T15:36:32.860Z,7.77
2019-03-29T15:39:00.634Z,7.30
2019-03-29T15:41:28.383Z,8.03
2019-03-29T15:43:56.150Z,7.43
2019-03-29T15:46:24.032Z,7.60
2019-03-29T15:48:51.799Z,8.23
2019-03-29T15:51:19.616Z,8.30
2019-03-29T15:53:47.372Z,7.53
2019-03-29T15:56:15.112Z,8.70
2019-03-29T15:58:42.926Z,8.80
2019-03-29T16:01:10.789Z,9.20
2019-03-29T16:03:38.741Z,8.83
2019-03-29T16:06:06.496Z,8.80
2019-03-29T16:08:34.474Z,9.40
2019-03-29T16:11:02.213Z,13.10
2019-03-29T16:13:30.024Z,26.63
2019-03-29T16:15:57.801Z,9.90
2019-03-29T16:18:25.692Z,8.93
2019-03-29T16:20:53.668Z,8.80
2019-03-29T16:23:21.432Z,7.70
2019-03-29T16:25:49.213Z,8.57
2019-03-29T16:28:17.089Z,9.50
2019-03-29T16:30:44.860Z,9.77
2019-03-29T16:33:12.643Z,9.23
2019-03-29T16:35:40.613Z,10.23
2019-03-29T16:38:08.641Z,12.00
2019-03-29T16:40:36.405Z,12.80
2019-03-29T16:43:04.155Z,10.33
2019-03-29T16:45:31.921Z,11.50
2019-03-29T16:47:59.670Z,12.00
2019-03-29T16:50:27.480Z,10.73
2019-03-29T16:52:55.356Z,11.40
2019-03-29T16:55:23.177Z,10.73
2019-03-29T16:57:51.005Z,11.93
2019-03-29T17:00:18.878Z,14.53
2019-03-29T17:02:46.643Z,14.50
2019-03-29T17:05:14.508Z,10.60
2019-03-29T17:07:42.275Z,8.70
2019-03-29T17:10:10.184Z,9.90
2019-03-29T17:12:37.939Z,9.10
2019-03-29T17:15:06.188Z,9.13
2019-03-29T17:17:34.365Z,9.50
2019-03-29T17:20:02.252Z,8.93
2019-03-29T17:22:30.176Z,21.70
2019-03-29T17:24:58.293Z,44.20
2019-03-29T17:27:26.077Z,31.90
2019-03-29T17:29:54.003Z,15.50
2019-03-29T17:32:21.898Z,16.50
2019-03-29T17:34:49.661Z,17.57
2019-03-29T17:37:17.491Z,19.90
2019-03-29T17:39:45.425Z,13.30
2019-03-29T17:42:13.284Z,11.60
2019-03-29T17:44:41.572Z,11.40
2019-03-29T17:47:09.505Z,10.40
2019-03-29T17:49:37.296Z,12.20
2019-03-29T17:52:05.081Z,16.27
2019-03-29T17:54:32.836Z,16.40
2019-03-29T17:57:00.568Z,18.73
2019-03-29T17:59:28.322Z,11.80
2019-03-29T18:02:08.795Z,13.20
2019-03-29T18:04:25.836Z,10.40
2019-03-29T18:06:53.713Z,10.13
2019-03-29T18:09:21.465Z,10.07
2019-03-29T18:11:49.216Z,9.93
2019-03-29T18:14:16.941Z,12.23
2019-03-29T18:16:44.745Z,10.60
2019-03-29T18:19:12.668Z,10.60
2019-03-29T18:21:40.409Z,10.83
2019-03-29T18:24:08.169Z,10.30
2019-03-29T18:26:35.905Z,23.50
2019-03-29T18:29:03.640Z,22.57
2019-03-29T18:31:31.453Z,18.67
2019-03-29T18:33:59.622Z,21.00
2019-03-29T18:36:27.566Z,11.03
2019-03-29T18:38:55.320Z,13.40
2019-03-29T18:41:23.048Z,12.70
2019-03-29T18:43:50.785Z,11.40
2019-03-29T18:46:18.682Z,10.00
2019-03-29T18:48:46.537Z,10.77
2019-03-29T18:51:14.410Z,9.60
2019-03-29T18:53:42.585Z,11.03
2019-03-29T18:56:10.453Z,14.50
2019-03-29T18:58:38.224Z,10.63
2019-03-29T19:01:05.968Z,10.57
2019-03-29T19:03:33.756Z,12.20
2019-03-29T19:06:01.523Z,11.10
2019-03-29T19:08:29.320Z,11.90
2019-03-29T19:10:57.069Z,19.83
2019-03-29T19:13:24.848Z,14.90
2019-03-29T19:15:52.648Z,9.43
2019-03-29T19:18:20.405Z,9.23
2019-03-29T19:20:48.272Z,8.80
2019-03-29T19:23:16.281Z,8.70
2019-03-29T19:25:44.032Z,10.33
2019-03-29T19:28:11.776Z,10.10
2019-03-29T19:30:39.641Z,10.40
2019-03-29T19:33:07.650Z,10.60
2019-03-29T19:35:35.437Z,10.73
2019-03-29T19:38:04.090Z,10.43
2019-03-29T19:40:31.908Z,10.73
2019-03-29T19:42:59.684Z,11.60
2019-03-29T19:45:27.448Z,10.67
2019-03-29T19:47:55.177Z,9.53
2019-03-29T19:50:22.966Z,9.20
2019-03-29T19:52:50.720Z,10.13
2019-03-29T19:55:18.636Z,10.80
2019-03-29T19:57:46.695Z,9.67
2019-03-29T20:00:14.828Z,9.13
2019-03-29T20:02:42.900Z,10.80
2019-03-29T20:05:24.506Z,10.23
2019-03-29T20:07:52.952Z,10.33
2019-03-29T20:10:20.731Z,9.37
2019-03-29T20:12:48.672Z,10.00
2019-03-29T20:15:16.627Z,9.20
2019-03-29T20:17:44.505Z,10.67
2019-03-29T20:20:15.876Z,10.17
2019-03-29T20:22:43.616Z,12.00
2019-03-29T20:25:11.385Z,14.77
2019-03-29T20:27:39.164Z,13.97
2019-03-29T20:30:07.320Z,13.47
2019-03-29T20:32:35.084Z,12.83
2019-03-29T20:35:02.880Z,13.10
2019-03-29T20:37:30.707Z,12.40
2019-03-29T20:39:58.657Z,11.47
2019-03-29T20:42:26.427Z,13.50
2019-03-29T20:44:54.164Z,11.60
2019-03-29T20:47:21.902Z,10.67
2019-03-29T20:49:49.666Z,10.07
2019-03-29T20:52:17.401Z,10.53
2019-03-29T20:54:45.137Z,10.53
2019-03-29T20:57:12.877Z,12.30
2019-03-29T20:59:40.644Z,10.70
2019-03-29T21:02:08.382Z,11.33
2019-03-29T21:04:36.133Z,11.20
2019-03-29T21:07:03.856Z,10.93
2019-03-29T21:09:31.616Z,11.30
2019-03-29T21:11:59.380Z,12.90
2019-03-29T21:14:27.232Z,12.53
2019-03-29T21:16:55.048Z,13.47
2019-03-29T21:19:22.896Z,14.00
2019-03-29T21:21:50.666Z,14.80
2019-03-29T21:24:18.428Z,13.50
2019-03-29T21:26:46.184Z,15.87
2019-03-29T21:29:13.916Z,13.43
2019-03-29T21:31:41.677Z,15.70
2019-03-29T21:34:09.428Z,16.40
2019-03-29T21:36:37.243Z,15.80
2019-03-29T21:39:08.157Z,14.80
2019-03-29T21:41:35.929Z,15.27
2019-03-29T21:44:03.704Z,13.70
2019-03-29T21:46:31.444Z,12.53
2019-03-29T21:48:59.190Z,13.03
2019-03-29T21:51:26.920Z,11.60
2019-03-29T21:53:54.678Z,12.03
2019-03-29T21:56:22.457Z,13.10
2019-03-29T21:58:50.263Z,11.87
2019-03-29T22:01:18.128Z,11.80
2019-03-29T22:03:45.876Z,12.43
2019-03-29T22:06:13.612Z,12.50
2019-03-29T22:08:41.380Z,10.70
2019-03-29T22:11:09.137Z,13.00
2019-03-29T22:13:36.797Z,13.20
2019-03-29T22:16:04.557Z,13.40
2019-03-29T22:18:38.118Z,13.47
2019-03-29T22:21:02.091Z,13.10
2019-03-29T22:23:29.860Z,14.40
2019-03-29T22:25:57.620Z,14.27
2019-03-29T22:28:25.408Z,13.90
2019-03-29T22:30:53.169Z,14.17
2019-03-29T22:33:20.920Z,13.20
2019-03-29T22:35:48.788Z,14.70
2019-03-29T22:38:16.746Z,13.37
2019-03-29T22:40:44.536Z,14.73
2019-03-29T22:43:12.413Z,14.57
2019-03-29T22:45:40.196Z,12.50
2019-03-29T22:48:08.060Z,13.40
2019-03-29T22:50:35.808Z,13.37
2019-03-29T22:53:03.663Z,11.27
2019-03-29T22:55:31.504Z,11.43
2019-03-29T22:57:59.549Z,12.47
2019-03-29T23:00:35.798Z,12.40
2019-03-29T23:03:03.956Z,11.70
2019-03-29T23:05:31.825Z,12.90
2019-03-29T23:07:59.584Z,13.43
2019-03-29T23:10:27.312Z,12.27
2019-03-29T23:12:55.190Z,12.40
2019-03-29T23:15:22.932Z,11.40
2019-03-29T23:17:50.788Z,14.40
2019-03-29T23:20:18.548Z,12.43
2019-03-29T23:22:46.320Z,13.10
2019-03-29T23:25:14.077Z,11.50
2019-03-29T23:27:41.824Z,12.40
2019-03-29T23:30:10.032Z,10.40
2019-03-29T23:32:37.769Z,12.50
2019-03-29T23:35:05.857Z,11.70
2019-03-29T23:37:33.609Z,12.90
2019-03-29T23:40:01.444Z,12.83
2019-03-29T23:42:29.208Z,12.50
2019-03-29T23:44:57.036Z,13.30
2019-03-29T23:47:24.789Z,13.97
2019-03-29T23:49:52.644Z,13.93
2019-03-29T23:52:20.421Z,12.87
2019-03-29T23:54:48.160Z,12.20
2019-03-29T23:57:16.022Z,12.20
2019-03-29T23:59:43.873Z,11.57
